createdAt,value
2019-01-04T00:01:30.884Z,30.90
2019-01-04T00:04:00.625Z,30.27
2019-01-04T00:06:29.014Z,30.40
2019-01-04T00:08:57.412Z,30.70
2019-01-04T00:11:26.038Z,30.17
2019-01-04T00:13:54.853Z,29.13
2019-01-04T00:16:23.641Z,31.97
2019-01-04T00:18:52.330Z,32.40
2019-01-04T00:21:21.016Z,29.77
2019-01-04T00:23:49.399Z,29.00
2019-01-04T00:26:17.980Z,28.17
2019-01-04T00:28:46.669Z,29.90
2019-01-04T00:31:15.055Z,29.03
2019-01-04T00:33:43.835Z,29.93
2019-01-04T00:38:39.793Z,32.53
2019-01-04T00:41:08.465Z,33.23
2019-01-04T00:43:37.141Z,35.03
2019-01-04T00:46:05.657Z,34.13
2019-01-04T00:48:34.307Z,34.77
2019-01-04T00:51:03.019Z,33.63
2019-01-04T00:53:31.388Z,31.93
2019-01-04T00:56:21.051Z,32.33
2019-01-04T00:59:25.670Z,31.47
2019-01-04T01:02:05.841Z,34.43
2019-01-04T01:04:57.699Z,33.40
2019-01-04T01:07:32.196Z,34.53
2019-01-04T01:10:20.945Z,35.87
2019-01-04T01:13:07.438Z,37.43
2019-01-04T01:15:54.139Z,34.97
2019-01-04T01:18:42.053Z,36.20
2019-01-04T01:21:40.918Z,39.33
2019-01-04T01:24:24.121Z,40.10
2019-01-04T01:27:15.157Z,40.47
2019-01-04T01:30:03.212Z,44.13
2019-01-04T01:32:54.228Z,40.90
2019-01-04T01:35:45.208Z,41.03
2019-01-04T01:38:48.584Z,40.83
2019-01-04T01:41:38.272Z,38.90
2019-01-04T01:44:36.955Z,41.80
2019-01-04T01:47:17.223Z,44.20
2019-01-04T01:50:04.789Z,45.70
2019-01-04T01:52:36.502Z,43.03
2019-01-04T01:55:05.556Z,45.40
2019-01-04T01:57:34.643Z,43.43
2019-01-04T02:00:03.686Z,45.93
2019-01-04T02:02:32.367Z,50.60
2019-01-04T02:05:01.054Z,47.87
2019-01-04T02:07:29.454Z,45.40
2019-01-04T02:09:57.941Z,48.70
2019-01-04T02:12:26.703Z,46.80
2019-01-04T02:14:55.100Z,45.23
2019-01-04T02:17:23.481Z,46.53
2019-01-04T02:19:52.180Z,41.07
2019-01-04T02:22:20.599Z,43.30
2019-01-04T02:24:48.989Z,39.77
2019-01-04T02:27:17.391Z,42.43
2019-01-04T02:29:45.776Z,37.77
2019-01-04T02:32:14.155Z,40.10
2019-01-04T02:34:43.033Z,39.10
2019-01-04T02:37:11.431Z,42.00
2019-01-04T02:39:39.813Z,42.20
2019-01-04T02:42:08.543Z,37.70
2019-01-04T02:44:37.367Z,42.60
2019-01-04T02:47:06.059Z,39.00
2019-01-04T02:49:34.454Z,42.97
2019-01-04T02:52:03.220Z,45.17
2019-01-04T02:54:31.906Z,37.73
2019-01-04T02:57:00.292Z,37.80
2019-01-04T02:59:28.683Z,40.03
2019-01-04T03:01:57.144Z,40.90
2019-01-04T03:04:26.246Z,37.37
2019-01-04T03:06:54.930Z,41.80
2019-01-04T03:09:23.618Z,49.00
2019-01-04T03:11:52.009Z,41.33
2019-01-04T03:14:20.567Z,38.53
2019-01-04T03:16:49.264Z,41.27
2019-01-04T03:19:17.659Z,40.40
2019-01-04T03:21:46.258Z,36.10
2019-01-04T03:24:14.918Z,40.80
2019-01-04T03:26:43.308Z,46.03
2019-01-04T03:29:12.080Z,40.60
2019-01-04T03:31:40.976Z,44.10
2019-01-04T03:34:09.372Z,36.83
2019-01-04T03:36:37.767Z,40.07
2019-01-04T03:39:06.824Z,47.00
2019-01-04T03:41:35.211Z,36.27
2019-01-04T03:44:03.999Z,41.47
2019-01-04T03:46:32.392Z,38.53
2019-01-04T03:49:00.776Z,47.50
2019-01-04T03:51:29.160Z,49.97
2019-01-04T03:53:58.127Z,49.50
2019-01-04T03:56:26.618Z,48.17
2019-01-04T03:58:55.018Z,48.77
2019-01-04T04:01:23.584Z,46.10
2019-01-04T04:03:51.983Z,41.80
2019-01-04T04:06:20.368Z,50.40
2019-01-04T04:08:48.751Z,51.23
2019-01-04T04:11:17.157Z,47.40
2019-01-04T04:13:45.546Z,47.77
2019-01-04T04:16:14.253Z,49.60
2019-01-04T04:18:42.715Z,54.90
2019-01-04T04:21:11.118Z,54.13
2019-01-04T04:23:39.500Z,50.77
2019-01-04T04:26:07.885Z,47.83
2019-01-04T04:28:37.069Z,49.40
2019-01-04T04:31:05.455Z,45.97
2019-01-04T04:33:33.848Z,45.97
2019-01-04T04:36:02.518Z,48.00
2019-01-04T04:38:30.905Z,46.33
2019-01-04T04:40:59.296Z,41.80
2019-01-04T04:43:27.958Z,49.47
2019-01-04T04:45:56.642Z,46.67
2019-01-04T04:48:25.043Z,55.80
2019-01-04T04:50:53.516Z,52.50
2019-01-04T04:53:22.063Z,54.80
2019-01-04T04:55:50.509Z,53.80
2019-01-04T04:58:19.660Z,56.23
2019-01-04T05:00:48.349Z,57.63
2019-01-04T05:03:17.042Z,70.53
2019-01-04T05:05:46.129Z,66.23
2019-01-04T05:08:15.021Z,67.97
2019-01-04T05:10:43.412Z,72.20
2019-01-04T05:13:13.620Z,64.83
2019-01-04T05:15:42.021Z,71.97
2019-01-04T05:18:10.434Z,68.27
2019-01-04T05:20:38.836Z,72.77
2019-01-04T05:23:07.716Z,68.27
2019-01-04T05:25:36.439Z,73.50
2019-01-04T05:28:05.142Z,66.90
2019-01-04T05:30:34.231Z,69.67
2019-01-04T05:33:02.616Z,70.97
2019-01-04T05:35:31.005Z,77.23
2019-01-04T05:37:59.389Z,78.43
2019-01-04T05:40:27.783Z,74.83
2019-01-04T05:42:56.422Z,65.73
2019-01-04T05:45:24.817Z,66.60
2019-01-04T05:47:53.222Z,66.00
2019-01-04T05:50:21.614Z,62.93
2019-01-04T05:52:50.351Z,58.10
2019-01-04T05:55:18.755Z,63.83
2019-01-04T05:57:47.150Z,66.90
2019-01-04T06:00:15.546Z,70.30
2019-01-04T06:02:43.920Z,64.77
2019-01-04T06:05:12.362Z,69.23
2019-01-04T06:07:41.240Z,75.33
2019-01-04T06:10:09.631Z,81.23
2019-01-04T06:12:38.031Z,68.27
2019-01-04T06:15:06.955Z,73.20
2019-01-04T06:17:35.775Z,79.83
2019-01-04T06:20:06.415Z,80.27
2019-01-04T06:22:34.821Z,73.13
2019-01-04T06:25:03.783Z,63.60
2019-01-04T06:27:32.274Z,60.10
2019-01-04T06:30:01.055Z,61.83
2019-01-04T06:32:29.446Z,60.57
2019-01-04T06:34:57.842Z,54.63
2019-01-04T06:37:26.899Z,53.90
2019-01-04T06:39:55.285Z,55.93
2019-01-04T06:42:23.678Z,54.33
2019-01-04T06:44:52.361Z,56.13
2019-01-04T06:47:20.745Z,57.87
2019-01-04T06:49:49.131Z,52.07
2019-01-04T06:52:17.583Z,51.10
2019-01-04T06:55:17.862Z,49.37
2019-01-04T06:57:46.948Z,51.20
2019-01-04T07:00:15.598Z,47.60
2019-01-04T07:02:43.982Z,47.70
2019-01-04T07:05:12.386Z,47.63
2019-01-04T07:07:41.043Z,42.70
2019-01-04T07:10:10.461Z,49.93
2019-01-04T07:12:38.855Z,43.83
2019-01-04T07:15:07.774Z,41.60
2019-01-04T07:17:36.179Z,42.27
2019-01-04T07:20:06.300Z,40.37
2019-01-04T07:22:34.687Z,45.17
2019-01-04T07:25:03.306Z,46.27
2019-01-04T07:27:31.694Z,47.50
2019-01-04T07:30:00.224Z,43.87
2019-01-04T07:32:28.751Z,41.97
2019-01-04T07:34:57.141Z,41.80
2019-01-04T07:37:25.539Z,42.90
2019-01-04T07:39:55.002Z,40.57
2019-01-04T07:42:23.695Z,37.23
2019-01-04T07:44:52.082Z,36.10
2019-01-04T07:47:20.473Z,34.00
2019-01-04T07:49:49.314Z,32.47
2019-01-04T07:52:18.373Z,35.63
2019-01-04T07:54:46.764Z,35.87
2019-01-04T07:57:15.159Z,36.30
2019-01-04T07:59:43.930Z,35.17
2019-01-04T08:02:34.052Z,35.73
2019-01-04T08:05:02.447Z,35.80
2019-01-04T08:07:30.920Z,34.80
2019-01-04T08:09:59.321Z,35.20
2019-01-04T08:12:27.890Z,36.17
2019-01-04T08:14:56.275Z,37.20
2019-01-04T08:17:24.856Z,36.07
2019-01-04T08:19:53.328Z,34.07
2019-01-04T08:22:21.710Z,36.03
2019-01-04T08:24:50.113Z,34.03
2019-01-04T08:27:18.500Z,35.57
2019-01-04T08:29:47.171Z,34.97
2019-01-04T08:32:15.827Z,35.10
2019-01-04T08:34:44.214Z,34.67
2019-01-04T08:37:12.615Z,36.13
2019-01-04T08:39:41.507Z,35.03
2019-01-04T08:42:09.929Z,35.40
2019-01-04T08:44:38.314Z,38.90
2019-01-04T08:47:06.788Z,36.47
2019-01-04T08:49:35.607Z,36.53
2019-01-04T08:52:03.988Z,38.67
2019-01-04T08:54:32.388Z,35.70
2019-01-04T08:57:01.066Z,39.57
2019-01-04T08:59:29.445Z,38.97
2019-01-04T09:01:57.845Z,40.17
2019-01-04T09:04:26.490Z,37.83
2019-01-04T09:06:55.189Z,37.03
2019-01-04T09:09:23.593Z,38.63
2019-01-04T09:11:51.975Z,36.37
2019-01-04T09:14:20.365Z,36.80
2019-01-04T09:16:49.102Z,40.67
2019-01-04T09:19:17.488Z,36.90
2019-01-04T09:21:46.308Z,38.40
2019-01-04T09:24:15.370Z,38.30
2019-01-04T09:26:43.755Z,38.07
2019-01-04T09:29:12.147Z,37.43
2019-01-04T09:31:40.541Z,37.23
2019-01-04T09:34:08.921Z,37.30
2019-01-04T09:36:37.319Z,38.33
2019-01-04T09:39:07.901Z,37.87
2019-01-04T09:41:37.813Z,36.90
2019-01-04T09:44:06.490Z,37.87
2019-01-04T09:46:35.021Z,38.70
2019-01-04T09:49:03.512Z,38.80
2019-01-04T09:51:32.217Z,38.47
2019-01-04T09:54:02.400Z,38.13
2019-01-04T09:56:31.027Z,38.60
2019-01-04T09:59:01.440Z,36.20
2019-01-04T10:01:30.479Z,38.97
2019-01-04T10:04:01.289Z,38.30
2019-01-04T10:06:30.878Z,39.70
2019-01-04T10:08:59.860Z,40.87
2019-01-04T10:11:28.528Z,39.50
2019-01-04T10:13:57.478Z,40.13
2019-01-04T10:16:25.868Z,42.37
2019-01-04T10:18:55.305Z,43.10
2019-01-04T10:21:23.690Z,44.07
2019-01-04T10:23:52.439Z,47.37
2019-01-04T10:26:20.824Z,44.03
2019-01-04T10:28:51.021Z,41.40
2019-01-04T10:31:19.414Z,42.43
2019-01-04T10:33:47.808Z,46.20
2019-01-04T10:36:16.186Z,43.50
2019-01-04T10:38:44.586Z,45.67
2019-01-04T10:41:15.633Z,43.80
2019-01-04T10:43:44.025Z,46.43
2019-01-04T10:46:12.414Z,44.53
2019-01-04T10:48:40.813Z,50.13
2019-01-04T10:51:09.201Z,45.30
2019-01-04T10:53:37.600Z,45.10
2019-01-04T10:56:06.227Z,44.83
2019-01-04T10:58:34.618Z,44.10
2019-01-04T11:01:03.072Z,46.10
2019-01-04T11:03:31.547Z,43.27
2019-01-04T11:05:59.934Z,44.23
2019-01-04T11:08:28.588Z,40.13
2019-01-04T11:10:56.973Z,43.93
2019-01-04T11:13:25.369Z,42.57
2019-01-04T11:15:53.751Z,42.83
2019-01-04T11:18:22.155Z,39.37
2019-01-04T11:20:50.737Z,41.33
2019-01-04T11:23:37.037Z,44.03
2019-01-04T11:26:08.479Z,43.30
2019-01-04T11:28:42.836Z,41.17
2019-01-04T11:31:32.225Z,47.17
2019-01-04T11:34:19.988Z,42.83
2019-01-04T11:37:14.235Z,39.87
2019-01-04T11:40:17.616Z,40.23
2019-01-04T11:43:25.960Z,37.27
2019-01-04T11:46:09.172Z,39.20
2019-01-04T11:48:52.620Z,39.27
2019-01-04T11:51:36.346Z,37.80
2019-01-04T11:54:07.267Z,37.27
2019-01-04T11:56:35.912Z,40.87
2019-01-04T11:59:04.592Z,37.40
2019-01-04T12:01:32.974Z,40.00
2019-01-04T12:04:02.157Z,35.50
2019-01-04T12:06:30.838Z,36.30
2019-01-04T12:08:59.709Z,34.03
2019-01-04T12:11:28.101Z,32.90
2019-01-04T12:13:56.894Z,26.87
2019-01-04T12:16:25.284Z,33.70
2019-01-04T12:18:53.675Z,27.83
2019-01-04T12:21:22.207Z,28.13
2019-01-04T12:23:50.592Z,26.90
2019-01-04T12:26:18.984Z,27.53
2019-01-04T12:28:47.379Z,31.73
2019-01-04T12:31:15.771Z,26.17
2019-01-04T12:33:44.161Z,30.93
2019-01-04T12:36:13.019Z,27.10
2019-01-04T12:38:41.705Z,27.10
2019-01-04T12:41:10.096Z,26.80
2019-01-04T12:43:39.313Z,27.10
2019-01-04T12:46:07.965Z,28.37
2019-01-04T12:48:36.342Z,24.90
2019-01-04T12:51:06.367Z,25.00
2019-01-04T12:53:35.459Z,28.03
2019-01-04T12:56:04.149Z,31.43
2019-01-04T12:58:32.534Z,31.73
2019-01-04T13:01:01.035Z,27.97
2019-01-04T13:03:29.774Z,27.37
2019-01-04T13:05:58.180Z,30.10
2019-01-04T13:08:26.968Z,28.97
2019-01-04T13:10:55.381Z,27.33
2019-01-04T13:13:23.790Z,30.90
2019-01-04T13:15:52.168Z,28.07
2019-01-04T13:18:21.023Z,31.80
2019-01-04T13:20:49.416Z,32.60
2019-01-04T13:23:17.794Z,31.93
2019-01-04T13:25:46.186Z,34.00
2019-01-04T13:28:14.568Z,34.07
2019-01-04T13:30:43.292Z,36.00
2019-01-04T13:33:11.757Z,37.43
2019-01-04T13:35:40.140Z,33.23
2019-01-04T13:38:08.541Z,36.07
2019-01-04T13:40:38.146Z,34.03
2019-01-04T13:43:07.308Z,38.27
2019-01-04T13:45:36.074Z,36.20
2019-01-04T13:48:04.948Z,37.90
2019-01-04T13:50:33.336Z,40.93
2019-01-04T13:53:04.786Z,43.37
2019-01-04T13:55:33.186Z,42.50
2019-01-04T13:58:03.397Z,43.37
2019-01-04T14:00:31.797Z,41.40
2019-01-04T14:03:01.590Z,40.97
2019-01-04T14:05:30.330Z,44.83
2019-01-04T14:07:58.726Z,42.80
2019-01-04T14:10:27.427Z,44.07
2019-01-04T14:12:56.080Z,49.73
2019-01-04T14:15:25.002Z,51.63
2019-01-04T14:17:54.435Z,55.30
2019-01-04T14:20:23.051Z,52.50
2019-01-04T14:22:52.180Z,52.77
2019-01-04T14:25:20.659Z,53.10
2019-01-04T14:27:49.062Z,52.00
2019-01-04T14:30:17.680Z,56.47
2019-01-04T14:32:46.391Z,52.97
2019-01-04T14:35:15.276Z,55.93
2019-01-04T14:37:43.763Z,55.50
2019-01-04T14:40:12.322Z,56.60
2019-01-04T14:42:40.964Z,57.17
2019-01-04T14:45:09.598Z,52.90
2019-01-04T14:47:37.991Z,52.40
2019-01-04T14:50:09.394Z,57.63
2019-01-04T14:52:39.048Z,58.63
2019-01-04T14:55:07.827Z,51.53
2019-01-04T14:57:36.226Z,53.17
2019-01-04T15:00:08.817Z,59.60
2019-01-04T15:02:37.499Z,60.20
2019-01-04T15:05:07.090Z,62.67
2019-01-04T15:07:35.587Z,59.37
2019-01-04T15:10:06.208Z,58.40
2019-01-04T15:12:34.610Z,53.60
2019-01-04T15:15:03.454Z,58.03
2019-01-04T15:17:31.853Z,51.87
2019-01-04T15:20:00.360Z,53.10
2019-01-04T15:22:28.743Z,56.83
2019-01-04T15:24:57.138Z,54.77
2019-01-04T15:27:25.605Z,55.67
2019-01-04T15:29:54.297Z,55.10
2019-01-04T15:32:22.686Z,60.93
2019-01-04T15:34:51.095Z,62.87
2019-01-04T15:37:19.580Z,58.33
2019-01-04T15:39:47.960Z,54.60
2019-01-04T15:42:16.362Z,59.33
2019-01-04T15:44:45.048Z,52.10
2019-01-04T15:47:13.446Z,55.40
2019-01-04T15:49:42.216Z,54.57
2019-01-04T15:52:10.624Z,54.70
2019-01-04T15:54:39.624Z,54.63
2019-01-04T15:57:08.019Z,62.17
2019-01-04T15:59:36.456Z,58.30
2019-01-04T16:02:04.920Z,61.60
2019-01-04T16:04:33.307Z,68.70
2019-01-04T16:07:01.704Z,57.93
2019-01-04T16:09:30.905Z,68.33
2019-01-04T16:11:59.290Z,63.80
2019-01-04T16:14:27.884Z,67.33
2019-01-04T16:16:56.263Z,62.60
2019-01-04T16:19:24.656Z,71.90
2019-01-04T16:21:53.052Z,72.17
2019-01-04T16:24:21.797Z,66.07
2019-01-04T16:26:50.179Z,69.20
2019-01-04T16:29:18.577Z,69.97
2019-01-04T16:31:47.239Z,71.57
2019-01-04T16:34:15.621Z,72.23
2019-01-04T16:36:44.013Z,73.93
2019-01-04T16:39:12.453Z,74.40
2019-01-04T16:41:40.831Z,74.30
2019-01-04T16:44:09.227Z,75.50
2019-01-04T16:46:40.959Z,83.33
2019-01-04T16:49:09.590Z,80.30
2019-01-04T16:51:37.965Z,87.63
2019-01-04T16:54:06.567Z,79.40
2019-01-04T16:56:35.245Z,87.20
2019-01-04T16:59:04.041Z,83.33
2019-01-04T17:01:32.610Z,94.20
2019-01-04T17:04:01.609Z,89.83
2019-01-04T17:06:33.098Z,87.10
2019-01-04T17:09:01.629Z,92.90
2019-01-04T17:11:30.025Z,92.70
2019-01-04T17:14:00.990Z,93.90
2019-01-04T17:16:35.443Z,96.37
2019-01-04T17:19:04.143Z,98.90
2019-01-04T17:21:32.693Z,93.63
2019-01-04T17:24:01.861Z,94.20
2019-01-04T17:26:30.297Z,94.23
2019-01-04T17:28:58.794Z,101.23
2019-01-04T17:31:27.575Z,103.33
2019-01-04T17:33:55.989Z,92.67
2019-01-04T17:36:24.483Z,105.97
2019-01-04T17:38:53.312Z,100.70
2019-01-04T17:41:21.731Z,95.90
2019-01-04T17:43:50.145Z,91.10
2019-01-04T17:46:18.914Z,94.93
2019-01-04T17:48:47.363Z,102.77
2019-01-04T17:51:15.751Z,107.40
2019-01-04T17:53:44.516Z,98.23
2019-01-04T17:56:13.570Z,96.47
2019-01-04T17:58:41.997Z,103.20
2019-01-04T18:01:10.379Z,98.00
2019-01-04T18:03:38.790Z,102.93
2019-01-04T18:06:07.457Z,97.83
2019-01-04T18:08:36.231Z,98.87
2019-01-04T18:11:04.626Z,101.73
2019-01-04T18:13:33.018Z,101.23
2019-01-04T18:16:01.899Z,98.20
2019-01-04T18:18:31.605Z,103.17
2019-01-04T18:20:59.963Z,101.90
2019-01-04T18:23:28.555Z,96.03
2019-01-04T18:25:56.944Z,101.43
2019-01-04T18:28:25.330Z,107.40
2019-01-04T18:30:54.154Z,94.67
2019-01-04T18:33:22.958Z,93.40
2019-01-04T18:35:51.351Z,98.90
2019-01-04T18:38:20.096Z,101.00
2019-01-04T18:40:48.764Z,97.30
2019-01-04T18:43:17.447Z,98.47
2019-01-04T18:45:45.882Z,96.37
2019-01-04T18:48:14.331Z,91.90
2019-01-04T18:50:42.716Z,93.60
2019-01-04T18:53:11.105Z,102.43
2019-01-04T18:55:40.228Z,104.33
2019-01-04T18:58:08.753Z,100.90
2019-01-04T19:00:37.155Z,100.20
2019-01-04T19:03:05.549Z,102.00
2019-01-04T19:05:34.148Z,102.97
2019-01-04T19:08:02.554Z,113.23
2019-01-04T19:10:31.745Z,98.67
2019-01-04T19:13:00.173Z,110.20
2019-01-04T19:15:28.562Z,106.33
2019-01-04T19:17:56.970Z,106.53
2019-01-04T19:20:25.361Z,107.00
2019-01-04T19:22:54.155Z,104.70
2019-01-04T19:25:22.626Z,101.90
2019-01-04T19:27:51.006Z,96.73
2019-01-04T19:30:19.410Z,105.67
2019-01-04T19:32:47.816Z,99.73
2019-01-04T19:35:16.222Z,105.47
2019-01-04T19:37:45.043Z,121.53
2019-01-04T19:40:13.505Z,101.23
2019-01-04T19:42:41.909Z,116.77
2019-01-04T19:45:10.894Z,105.63
2019-01-04T19:47:39.303Z,108.23
2019-01-04T19:50:16.216Z,105.93
2019-01-04T19:52:44.946Z,104.10
2019-01-04T19:55:13.342Z,105.07
2019-01-04T19:57:41.745Z,96.40
2019-01-04T20:00:10.792Z,96.73
2019-01-04T20:02:39.382Z,91.77
2019-01-04T20:05:08.256Z,101.00
2019-01-04T20:08:10.038Z,102.43
2019-01-04T20:11:05.666Z,105.00
2019-01-04T20:14:04.744Z,103.80
2019-01-04T20:16:49.905Z,106.73
2019-01-04T20:19:36.045Z,98.20
2019-01-04T20:22:15.260Z,103.63
2019-01-04T20:25:01.626Z,94.60
2019-01-04T20:27:46.873Z,97.37
2019-01-04T20:30:19.892Z,106.67
2019-01-04T20:33:06.311Z,89.17
2019-01-04T20:35:36.554Z,96.60
2019-01-04T20:38:19.253Z,92.83
2019-01-04T20:41:00.970Z,91.10
2019-01-04T20:43:47.549Z,94.17
2019-01-04T20:46:17.573Z,98.00
2019-01-04T20:48:47.602Z,86.67
2019-01-04T20:51:20.371Z,89.40
2019-01-04T20:53:50.688Z,94.30
2019-01-04T20:56:36.832Z,97.37
2019-01-04T20:59:09.769Z,90.87
2019-01-04T21:01:39.807Z,89.53
2019-01-04T21:04:15.259Z,86.37
2019-01-04T21:06:54.463Z,89.07
2019-01-04T21:09:27.883Z,92.30
2019-01-04T21:11:57.941Z,89.10
2019-01-04T21:14:30.966Z,95.17
2019-01-04T21:17:01.295Z,91.70
2019-01-04T21:19:33.979Z,83.63
2019-01-04T21:22:20.150Z,87.90
2019-01-04T21:24:50.472Z,84.03
2019-01-04T21:27:35.709Z,89.40
2019-01-04T21:30:09.578Z,88.17
2019-01-04T21:32:54.557Z,84.07
2019-01-04T21:35:42.993Z,78.50
2019-01-04T21:38:19.109Z,84.83
2019-01-04T21:41:04.134Z,83.40
2019-01-04T21:43:40.383Z,74.90
2019-01-04T21:46:22.387Z,77.77
2019-01-04T21:49:01.511Z,83.60
2019-01-04T21:51:39.030Z,87.53
2019-01-04T21:54:21.822Z,81.50
2019-01-04T21:56:55.025Z,73.40
2019-01-04T21:59:31.150Z,86.53
2019-01-04T22:02:07.345Z,85.50
2019-01-04T22:04:54.295Z,78.60
2019-01-04T22:07:29.734Z,82.97
2019-01-04T22:10:03.614Z,84.87
2019-01-04T22:12:36.907Z,83.30
2019-01-04T22:15:13.020Z,86.53
2019-01-04T22:17:59.459Z,83.20
2019-01-04T22:20:46.126Z,83.43
2019-01-04T22:23:21.596Z,81.43
2019-01-04T22:26:06.314Z,80.37
2019-01-04T22:28:37.708Z,82.97
2019-01-04T22:31:10.819Z,94.37
2019-01-04T22:33:41.137Z,82.30
2019-01-04T22:36:11.164Z,91.23
2019-01-04T22:38:48.029Z,84.40
2019-01-04T22:41:23.748Z,90.20
2019-01-04T22:43:59.508Z,79.93
2019-01-04T22:46:38.634Z,85.47
2019-01-04T22:49:08.674Z,82.60
2019-01-04T22:51:45.370Z,83.07
2019-01-04T22:54:18.768Z,85.67
2019-01-04T22:56:48.870Z,85.37
2019-01-04T22:59:35.022Z,83.80
2019-01-04T23:02:11.242Z,87.97
2019-01-04T23:04:53.608Z,85.73
2019-01-04T23:07:23.763Z,85.73
2019-01-04T23:09:56.548Z,83.67
2019-01-04T23:12:42.057Z,85.90
2019-01-04T23:15:28.120Z,82.83
2019-01-04T23:18:14.838Z,80.63
2019-01-04T23:20:44.862Z,74.90
2019-01-04T23:23:17.886Z,79.47
2019-01-04T23:26:04.234Z,79.37
2019-01-04T23:28:50.421Z,81.67
2019-01-04T23:31:26.802Z,86.80
2019-01-04T23:34:12.986Z,89.77
2019-01-04T23:36:43.013Z,84.03
2019-01-04T23:39:13.379Z,83.23
2019-01-04T23:42:00.652Z,91.43
2019-01-04T23:44:36.940Z,80.70
2019-01-04T23:47:16.470Z,89.53
2019-01-04T23:49:46.998Z,87.80
2019-01-04T23:52:29.813Z,97.87
2019-01-04T23:55:14.845Z,98.47
2019-01-04T23:57:50.664Z,92.90
